Wembley, Canada
Current Conditions -  °F | °C
As of 7:00 PM on Friday 28 Nov 2014 (Local Time) from CYQU Reporting Station
Scattered Clouds Scattered Clouds  
Wind Chill: -39°   Ceiling: Unl
Heat Index: -18°   Visibility: 25mi
Dew Point: -24°   Wind: 10mph
Humidity: 76%   Direction: 280°W
Pressure: 30.02"   Gusts: NA
Location:  55.15°N, 119.15°W
Report Text: CYQU 290200Z 28009KT 25SM SCT120 M28/M31 A3002 RMK AC3 SLP245
Loading
Personal Weather Stations






























Interactive Weather Map New forecast layout! Learn more

10-Day Weather Forecast

Advertisements
Track Severe Weather on mobile